Time;durP1;ratioP1;P1;durP2;ratioP2;P2;SDS_P1;SDS_P2;PMS_P1;PMS_P2;Temp;Humidity;BMP_temperature;BMP_pressure;BME280_temperature;BME280_humidity;BME280_pressure;Samples;Min_cycle;Max_cycle;Signal;HPM_P1;HPM_P2
2022/02/09 00:02:04;;;;;;;8.10;3.30;;;5.30;99.90;;;;;;4410665;32;20305;-66
2022/02/09 00:04:54;;;;;;;7.03;3.43;;;5.30;99.90;;;;;;4430988;32;20178;-66
2022/02/09 00:07:32;;;;;;;9.40;3.50;;;5.20;99.90;;;;;;4440477;32;20173;-66
2022/02/09 00:09:59;;;;;;;7.80;3.20;;;5.10;99.90;;;;;;4440389;32;20163;-66
2022/02/09 00:12:39;;;;;;;8.67;3.33;;;5.10;99.90;;;;;;4441448;32;20477;-67
2022/02/09 00:18:04;;;;;;;9.00;3.37;;;5.00;99.90;;;;;;4441521;32;20189;-66
2022/02/09 00:34:35;;;;;;;6.50;2.60;;;4.90;99.90;;;;;;4439978;32;20489;-66
2022/02/09 00:42:43;;;;;;;10.97;3.20;;;4.80;99.90;;;;;;4438802;32;20182;-66
2022/02/09 01:56:02;;;;;;;10.30;3.20;;;4.50;99.90;;;;;;4439162;32;20485;-66
2022/02/09 01:58:31;;;;;;;8.33;3.53;;;4.50;99.90;;;;;;4438726;32;20178;-66
2022/02/09 02:00:58;;;;;;;6.90;3.20;;;4.50;99.90;;;;;;4439581;32;20234;-67
2022/02/09 02:03:25;;;;;;;8.33;3.23;;;4.40;99.90;;;;;;4438176;32;20173;-67
2022/02/09 02:05:55;;;;;;;9.97;3.17;;;4.30;99.90;;;;;;4437744;32;20224;-66
2022/02/09 02:08:23;;;;;;;7.50;3.17;;;4.20;99.90;;;;;;4424142;32;20435;-67
2022/02/09 02:11:05;;;;;;;11.93;3.90;;;4.20;99.90;;;;;;4432808;32;20482;-66
2022/02/09 02:16:38;;;;;;;7.17;2.60;;;4.10;99.90;;;;;;4437850;32;20460;-66
2022/02/09 02:27:44;;;;;;;9.43;3.20;;;4.10;99.90;;;;;;4401206;32;20184;-66
2022/02/09 02:30:44;;;;;;;8.40;3.70;;;4.10;99.90;;;;;;4411458;32;20185;-66
2022/02/09 02:33:27;;;;;;;13.73;3.80;;;4.10;99.90;;;;;;4411399;32;20178;-66
2022/02/09 02:36:17;;;;;;;8.03;3.60;;;4.10;99.90;;;;;;4424288;32;20493;-66
2022/02/09 02:39:00;;;;;;;11.60;4.10;;;4.20;99.90;;;;;;4415848;32;20191;-67
2022/02/09 03:11:09;;;;;;;12.07;4.80;;;4.50;99.90;;;;;;4376641;32;20169;-66
2022/02/09 03:13:48;;;;;;;11.47;4.90;;;4.50;99.90;;;;;;4364854;32;20215;-66
2022/02/09 03:16:25;;;;;;;10.33;5.10;;;4.50;99.90;;;;;;4379085;32;20438;-67
2022/02/09 03:22:12;;;;;;;13.33;4.83;;;4.60;99.90;;;;;;4334547;33;20161;-66
2022/02/09 03:27:32;;;;;;;10.87;5.07;;;4.60;99.90;;;;;;4346872;32;20535;-66
2022/02/09 03:50:19;;;;;;;15.20;6.73;;;4.50;99.90;;;;;;4336147;33;20173;-66
2022/02/09 03:58:08;;;;;;;17.57;7.27;;;4.60;99.90;;;;;;4313779;33;20177;-66
2022/02/09 04:00:39;;;;;;;17.07;7.20;;;4.70;99.90;;;;;;4303247;33;20216;-66
2022/02/09 04:03:11;;;;;;;17.70;7.30;;;4.70;99.90;;;;;;4306361;33;20220;-66
2022/02/09 04:05:38;;;;;;;15.43;7.93;;;4.70;99.90;;;;;;4319337;33;20380;-67
2022/02/09 04:08:10;;;;;;;17.23;7.67;;;4.60;99.90;;;;;;4317818;33;20166;-66
2022/02/09 04:10:43;;;;;;;18.60;9.10;;;4.70;99.90;;;;;;4319658;33;20520;-66
2022/02/09 04:13:24;;;;;;;16.03;7.47;;;4.60;99.90;;;;;;4317193;33;20203;-66
2022/02/09 04:16:02;;;;;;;17.20;8.60;;;4.60;99.90;;;;;;4309156;33;20197;-67
2022/02/09 04:41:16;;;;;;;18.87;7.60;;;4.20;99.90;;;;;;4410788;32;20513;-66
2022/02/09 05:02:34;;;;;;;16.77;6.40;;;3.80;99.90;;;;;;4424182;32;20192;-66
2022/02/09 05:26:20;;;;;;;14.90;6.30;;;3.60;99.90;;;;;;4438552;32;20223;-66
2022/02/09 05:28:48;;;;;;;15.97;6.67;;;3.60;99.90;;;;;;4439259;32;20169;-66
2022/02/09 05:31:15;;;;;;;16.80;6.93;;;3.60;99.90;;;;;;4439957;32;20213;-66
2022/02/09 05:33:41;;;;;;;18.53;6.87;;;3.60;99.90;;;;;;4439017;32;20177;-66
2022/02/09 05:36:08;;;;;;;17.17;6.83;;;3.60;99.90;;;;;;4438311;32;20177;-66
2022/02/09 05:38:35;;;;;;;21.53;7.20;;;3.60;99.90;;;;;;4438627;32;20225;-66
2022/02/09 05:41:02;;;;;;;16.67;7.43;;;3.70;99.90;;;;;;4438032;32;20242;-66
2022/02/09 05:43:29;;;;;;;18.63;7.13;;;3.70;99.90;;;;;;4437667;32;20413;-66
2022/02/09 05:49:13;;;;;;;15.50;7.27;;;3.80;99.90;;;;;;4438879;32;20186;-66
2022/02/09 05:51:22;;;;;;;14.77;6.60;;;3.90;99.90;;;;;;4438491;32;20179;-66
2022/02/09 05:56:36;;;;;;;15.20;6.80;;;3.90;99.90;;;;;;4437572;32;20198;-66
2022/02/09 05:59:28;;;;;;;17.13;7.00;;;4.00;99.90;;;;;;4438167;32;20245;-67
2022/02/09 06:01:56;;;;;;;17.60;7.10;;;4.00;99.90;;;;;;4439378;32;20182;-66
2022/02/09 06:04:23;;;;;;;17.57;6.70;;;4.00;99.90;;;;;;4439753;32;20178;-66
2022/02/09 06:06:51;;;;;;;17.43;6.27;;;4.10;99.90;;;;;;4442283;32;20415;-66
2022/02/09 06:09:18;;;;;;;19.13;7.00;;;4.10;99.90;;;;;;4440744;32;20474;-67
2022/02/09 06:11:50;;;;;;;18.23;6.27;;;4.10;99.90;;;;;;4441099;32;20216;-66
2022/02/09 06:14:39;;;;;;;19.30;6.63;;;4.10;99.90;;;;;;4441118;32;20170;-66
2022/02/09 06:19:55;;;;;;;11.73;5.93;;;4.20;99.90;;;;;;4440682;32;20197;-66
2022/02/09 06:22:23;;;;;;;19.03;6.37;;;4.20;99.90;;;;;;4440145;32;20484;-66
2022/02/09 06:24:51;;;;;;;14.87;6.10;;;4.20;99.90;;;;;;4440085;32;20563;-66
2022/02/09 06:27:19;;;;;;;16.80;6.07;;;4.20;99.90;;;;;;4442271;32;20148;-66
2022/02/09 06:29:47;;;;;;;17.63;6.10;;;4.20;99.90;;;;;;4439859;32;20280;-66
2022/02/09 06:32:17;;;;;;;11.23;5.27;;;4.20;99.90;;;;;;4429308;32;20218;-66
2022/02/09 06:34:46;;;;;;;15.50;5.53;;;4.20;99.90;;;;;;4439984;32;20617;-66
2022/02/09 06:37:19;;;;;;;16.70;5.90;;;4.20;99.90;;;;;;4441624;32;20465;-67
2022/02/09 06:39:55;;;;;;;13.63;5.60;;;4.30;99.90;;;;;;4442108;32;20148;-66
2022/02/09 06:42:23;;;;;;;15.73;6.00;;;4.30;99.90;;;;;;4441247;32;20216;-66
2022/02/09 06:45:01;;;;;;;14.60;5.97;;;4.30;99.90;;;;;;4427570;32;20193;-66
2022/02/09 06:47:29;;;;;;;16.90;6.17;;;4.30;99.90;;;;;;4440424;32;20174;-66
2022/02/09 06:50:12;;;;;;;15.03;6.13;;;4.30;99.90;;;;;;4439783;32;20431;-66
2022/02/09 06:52:56;;;;;;;13.63;6.10;;;4.20;99.90;;;;;;4441435;32;20177;-66
2022/02/09 06:55:23;;;;;;;18.23;6.10;;;4.10;99.90;;;;;;4440542;32;20184;-66
2022/02/09 06:58:01;;;;;;;17.77;6.50;;;4.10;99.90;;;;;;4441514;32;20419;-66
2022/02/09 07:00:31;;;;;;;14.20;6.20;;;4.10;99.90;;;;;;4439598;32;20182;-66
2022/02/09 07:02:58;;;;;;;13.73;5.90;;;4.10;99.90;;;;;;4426837;32;20247;-66
2022/02/09 07:05:26;;;;;;;13.60;5.43;;;4.10;99.90;;;;;;4441322;32;20146;-66
2022/02/09 07:07:55;;;;;;;16.40;6.37;;;4.10;99.90;;;;;;4441172;32;20187;-66
2022/02/09 07:10:22;;;;;;;13.83;5.70;;;4.10;99.90;;;;;;4438823;32;20170;-66
2022/02/09 07:12:50;;;;;;;16.97;5.43;;;4.10;99.90;;;;;;4433254;32;20177;-66
2022/02/09 07:15:27;;;;;;;16.33;5.33;;;4.10;99.90;;;;;;4442341;32;20210;-66
2022/02/09 07:17:55;;;;;;;16.90;5.90;;;4.20;99.90;;;;;;4427746;32;20232;-66
2022/02/09 07:20:26;;;;;;;11.40;5.00;;;4.20;99.90;;;;;;4428714;32;20171;-66
2022/02/09 07:22:55;;;;;;;12.53;5.57;;;4.20;99.90;;;;;;4439749;32;20226;-66
2022/02/09 07:25:31;;;;;;;15.87;5.30;;;4.20;99.90;;;;;;4440217;32;20230;-66
2022/02/09 07:28:06;;;;;;;14.00;5.33;;;4.20;99.90;;;;;;4441412;32;20177;-66
2022/02/09 07:30:35;;;;;;;11.77;5.57;;;4.30;99.90;;;;;;4440315;32;20248;-66
2022/02/09 07:33:06;;;;;;;12.73;5.10;;;4.30;99.90;;;;;;4440638;32;20583;-66
2022/02/09 07:35:34;;;;;;;13.17;4.63;;;4.40;99.90;;;;;;4427129;32;20221;-66
2022/02/09 07:38:03;;;;;;;11.77;5.10;;;4.40;99.90;;;;;;4440745;32;20436;-66
2022/02/09 07:40:30;;;;;;;14.50;5.67;;;4.50;99.90;;;;;;4426465;32;20559;-66
2022/02/09 07:43:04;;;;;;;11.40;5.27;;;4.50;99.90;;;;;;4414327;32;20452;-66
2022/02/09 07:51:26;;;;;;;17.53;5.93;;;4.60;99.90;;;;;;4380541;32;20483;-66
2022/02/09 07:54:03;;;;;;;13.90;5.53;;;4.60;99.90;;;;;;4392807;32;20147;-66
2022/02/09 07:56:42;;;;;;;12.60;5.37;;;4.70;99.90;;;;;;4381345;32;20225;-67
2022/02/09 07:59:15;;;;;;;15.00;5.43;;;4.80;99.90;;;;;;4379851;32;20143;-66
2022/02/09 08:01:44;;;;;;;13.70;5.97;;;4.80;99.90;;;;;;4393502;32;20203;-66
2022/02/09 08:04:14;;;;;;;13.63;5.70;;;4.90;99.90;;;;;;4380482;32;20168;-67
2022/02/09 08:06:46;;;;;;;16.20;6.20;;;5.00;99.90;;;;;;4379732;32;20192;-66
2022/02/09 08:09:47;;;;;;;15.90;6.67;;;5.40;99.90;;;;;;4367327;32;20195;-66
2022/02/09 08:29:01;;;;;;;10.77;4.60;;;6.90;99.90;;;;;;4409691;32;20309;-67
2022/02/09 08:34:17;;;;;;;14.10;4.87;;;6.70;99.90;;;;;;4409752;32;20199;-67
2022/02/09 08:36:46;;;;;;;14.13;4.73;;;6.70;99.90;;;;;;4396916;32;20553;-68
2022/02/09 08:39:23;;;;;;;12.03;4.47;;;6.90;99.90;;;;;;4397633;32;20254;-68
2022/02/09 08:41:51;;;;;;;13.10;4.83;;;7.00;99.90;;;;;;4409935;32;20397;-66
2022/02/09 08:44:18;;;;;;;10.70;4.13;;;7.10;99.90;;;;;;4398196;32;20174;-67
2022/02/09 08:46:48;;;;;;;17.67;5.53;;;7.20;99.90;;;;;;4422152;32;20199;-66
2022/02/09 08:49:16;;;;;;;12.33;4.70;;;7.00;99.90;;;;;;4411454;32;20491;-67
2022/02/09 08:51:48;;;;;;;13.37;4.70;;;7.10;99.90;;;;;;4416926;32;20196;-67
2022/02/09 08:54:17;;;;;;;13.03;4.70;;;7.00;99.90;;;;;;4412926;32;20220;-68
2022/02/09 08:56:44;;;;;;;11.73;4.83;;;7.40;99.90;;;;;;4442984;32;20173;-68
2022/02/09 08:59:11;;;;;;;14.27;4.90;;;7.90;99.90;;;;;;4440418;32;20184;-67
2022/02/09 09:01:53;;;;;;;10.23;4.27;;;8.10;99.90;;;;;;4455055;32;20428;-66
2022/02/09 09:04:26;;;;;;;10.13;3.93;;;7.90;99.90;;;;;;4455139;32;20196;-66
2022/02/09 09:06:59;;;;;;;10.33;4.40;;;8.00;99.90;;;;;;4441275;32;20176;-66
2022/02/09 09:16:11;;;;;;;10.47;4.30;;;7.50;99.90;;;;;;4454724;32;20188;-66
2022/02/09 10:31:21;;;;;;;10.63;5.10;;;7.60;99.90;;;;;;4452149;32;20166;-71
2022/02/09 10:34:16;;;;;;;9.73;4.50;;;7.60;99.90;;;;;;4444010;32;20180;-67
2022/02/09 10:36:59;;;;;;;10.27;4.53;;;7.50;99.90;;;;;;4448081;32;20192;-68
2022/02/09 10:39:48;;;;;;;7.47;4.07;;;7.40;99.90;;;;;;4439674;32;20237;-68
2022/02/09 10:42:22;;;;;;;11.40;4.53;;;7.40;99.90;;;;;;4440791;32;20196;-69
2022/02/09 10:45:02;;;;;;;9.27;4.63;;;7.40;99.90;;;;;;4443825;32;20174;-70
2022/02/09 10:47:35;;;;;;;8.73;4.40;;;7.50;99.90;;;;;;4443412;32;20527;-68
2022/02/09 10:50:38;;;;;;;8.50;4.17;;;7.50;99.90;;;;;;4428904;32;20177;-68
2022/02/09 10:53:11;;;;;;;10.17;4.10;;;7.60;99.90;;;;;;4445238;32;20230;-67
2022/02/09 10:55:43;;;;;;;7.70;3.73;;;7.60;99.90;;;;;;4427070;32;20235;-67
2022/02/09 10:58:24;;;;;;;8.30;4.20;;;7.70;99.90;;;;;;4441821;32;20178;-67
2022/02/09 11:00:52;;;;;;;5.40;3.50;;;7.70;99.90;;;;;;4441475;32;20191;-68
2022/02/09 11:03:27;;;;;;;6.37;3.30;;;7.70;99.90;;;;;;4439049;32;20229;-67
2022/02/09 11:05:55;;;;;;;6.07;3.40;;;7.70;99.90;;;;;;4429683;32;20233;-66
2022/02/09 11:08:23;;;;;;;6.90;3.43;;;7.70;99.90;;;;;;4441746;32;20238;-68
2022/02/09 11:10:51;;;;;;;6.47;3.47;;;7.60;99.90;;;;;;4442125;32;20193;-66
2022/02/09 11:13:18;;;;;;;8.33;4.00;;;7.60;99.90;;;;;;4443278;32;20204;-67
2022/02/09 11:15:49;;;;;;;9.03;3.93;;;7.50;99.90;;;;;;4443248;32;20192;-67
2022/02/09 11:18:21;;;;;;;6.30;3.80;;;7.50;99.90;;;;;;4442227;32;20230;-67
2022/02/09 11:21:05;;;;;;;8.33;4.00;;;7.50;99.90;;;;;;4437299;32;20207;-66
2022/02/09 11:23:54;;;;;;;6.90;4.50;;;7.40;99.90;;;;;;4437481;32;20196;-67
2022/02/09 11:27:09;;;;;;;9.80;4.67;;;7.40;99.90;;;;;;4446737;32;20541;-67
2022/02/09 11:30:01;;;;;;;9.20;4.83;;;7.30;99.90;;;;;;4438694;32;20179;-67
2022/02/09 11:32:34;;;;;;;9.83;5.00;;;7.30;99.90;;;;;;4436585;32;20292;-69
2022/02/09 11:35:24;;;;;;;9.73;4.93;;;7.20;99.90;;;;;;4441430;32;20177;-69
2022/02/09 11:43:59;;;;;;;10.77;5.17;;;7.30;99.90;;;;;;4377629;32;20177;-66
2022/02/09 11:46:45;;;;;;;12.53;5.87;;;7.20;99.90;;;;;;4364780;32;20217;-67
2022/02/09 11:52:13;;;;;;;9.83;5.40;;;7.30;99.90;;;;;;4365161;32;20191;-68
2022/02/09 12:01:06;;;;;;;10.20;6.00;;;7.20;99.90;;;;;;4363743;32;20557;-71
2022/02/09 12:10:06;;;;;;;12.50;6.80;;;7.20;99.90;;;;;;4364929;32;20185;-71
2022/02/09 12:12:12;;;;;;;12.70;7.07;;;7.20;99.90;;;;;;4361832;32;20189;-72
2022/02/09 12:15:32;;;;;;;12.87;7.60;;;7.20;99.90;;;;;;4365538;32;20215;-72
2022/02/09 12:20:21;;;;;;;15.83;8.20;;;7.20;99.90;;;;;;4414438;32;20177;-70
2022/02/09 12:23:08;;;;;;;16.33;8.60;;;7.20;99.90;;;;;;4427303;32;20187;-71
2022/02/09 12:25:45;;;;;;;15.50;8.33;;;7.20;99.90;;;;;;4451890;32;20193;-69
2022/02/09 12:28:24;;;;;;;17.07;9.13;;;7.20;99.90;;;;;;4440265;32;20185;-69
2022/02/09 12:31:08;;;;;;;18.60;9.07;;;7.20;99.90;;;;;;4438499;32;20212;-67
2022/02/09 12:33:41;;;;;;;17.80;9.87;;;7.10;99.90;;;;;;4439315;32;20425;-68
2022/02/09 12:36:25;;;;;;;20.40;10.67;;;7.10;99.90;;;;;;4426729;32;20172;-69
2022/02/09 12:39:09;;;;;;;21.10;10.20;;;7.10;99.90;;;;;;4438723;32;20180;-67
2022/02/09 12:41:36;;;;;;;21.53;10.70;;;7.10;99.90;;;;;;4426600;32;20212;-68
2022/02/09 12:44:07;;;;;;;22.87;12.07;;;7.10;99.90;;;;;;4439901;32;20207;-69
2022/02/09 12:46:38;;;;;;;21.03;12.13;;;7.10;99.90;;;;;;4439603;32;20422;-67
2022/02/09 12:49:11;;;;;;;23.30;12.60;;;7.10;99.90;;;;;;4439842;32;20252;-67
2022/02/09 12:51:39;;;;;;;28.87;13.30;;;7.10;99.90;;;;;;4437587;32;20193;-67
2022/02/09 12:54:08;;;;;;;25.93;13.50;;;7.10;99.90;;;;;;4426951;32;20198;-67
2022/02/09 12:56:39;;;;;;;25.47;13.07;;;7.00;99.90;;;;;;4439708;32;20175;-66
2022/02/09 12:59:15;;;;;;;24.43;13.27;;;7.10;99.90;;;;;;4437743;32;20188;-66
2022/02/09 13:01:50;;;;;;;25.80;13.50;;;7.10;99.90;;;;;;4437865;32;20283;-66
2022/02/09 13:04:38;;;;;;;25.13;13.47;;;7.10;99.90;;;;;;4437440;32;20176;-66
2022/02/09 13:07:24;;;;;;;27.60;13.97;;;7.10;99.90;;;;;;4439335;32;20185;-66
2022/02/09 13:09:54;;;;;;;25.57;13.77;;;7.10;99.90;;;;;;4437830;32;20180;-66
2022/02/09 13:12:29;;;;;;;23.80;13.57;;;7.20;99.90;;;;;;4436459;32;20216;-66
2022/02/09 13:15:12;;;;;;;27.77;15.17;;;7.20;99.90;;;;;;4438567;32;20213;-66
2022/02/09 13:18:10;;;;;;;29.80;14.73;;;7.20;99.90;;;;;;4439082;32;20185;-66
2022/02/09 13:23:57;;;;;;;28.03;14.73;;;7.30;99.90;;;;;;4438703;32;20212;-66
2022/02/09 13:52:06;;;;;;;26.00;14.60;;;7.50;99.90;;;;;;4455158;32;20182;-67
2022/02/09 14:11:06;;;;;;;24.60;13.67;;;7.60;99.90;;;;;;4454776;32;20492;-67
2022/02/09 14:13:54;;;;;;;25.03;14.10;;;7.60;99.90;;;;;;4441356;32;20218;-67
2022/02/09 14:50:20;;;;;;;28.53;17.20;;;7.70;99.90;;;;;;4402306;32;20602;-68
2022/02/09 14:52:22;;;;;;;30.20;17.00;;;7.70;99.90;;;;;;4403530;32;20219;-67
2022/02/09 14:55:02;;;;;;;27.07;16.53;;;7.70;99.90;;;;;;4409942;32;20211;-67
2022/02/09 14:57:35;;;;;;;29.97;17.10;;;7.70;99.90;;;;;;4398570;32;20229;-67
2022/02/09 15:00:18;;;;;;;30.07;16.83;;;7.70;99.90;;;;;;4409756;32;20273;-67
2022/02/09 15:05:52;;;;;;;25.53;16.47;;;7.70;99.90;;;;;;4435255;32;20401;-68
2022/02/09 15:10:49;;;;;;;27.57;16.37;;;7.80;99.90;;;;;;4439013;32;20174;-67
2022/02/09 15:16:04;;;;;;;24.90;16.03;;;7.80;99.90;;;;;;4456152;32;20156;-68
2022/02/09 15:21:18;;;;;;;24.37;15.60;;;7.80;99.90;;;;;;4442361;32;20184;-68
2022/02/09 15:23:46;;;;;;;23.97;15.23;;;7.90;99.90;;;;;;4439193;32;20181;-68
2022/02/09 15:26:13;;;;;;;22.13;14.23;;;7.90;99.90;;;;;;4439150;32;20178;-68
2022/02/09 15:28:40;;;;;;;20.40;13.37;;;7.90;99.90;;;;;;4440171;32;20200;-68
2022/02/09 15:33:43;;;;;;;22.20;13.87;;;7.90;99.90;;;;;;4442118;32;20543;-66
2022/02/09 15:36:45;;;;;;;22.23;13.47;;;7.80;99.90;;;;;;4440905;32;20174;-66
2022/02/09 15:39:14;;;;;;;21.63;13.43;;;7.80;99.90;;;;;;4441507;32;20209;-67
2022/02/09 15:42:00;;;;;;;21.77;13.37;;;7.70;99.90;;;;;;4441307;32;20202;-66
2022/02/09 16:22:39;;;;;;;16.93;11.23;;;7.40;99.90;;;;;;4393904;32;20183;-68
2022/02/09 16:25:50;;;;;;;18.60;11.30;;;7.30;99.90;;;;;;4395614;32;20220;-68
2022/02/09 16:44:39;;;;;;;18.60;11.27;;;7.40;99.90;;;;;;4361595;32;20185;-69
2022/02/09 16:47:32;;;;;;;20.47;11.67;;;7.40;99.90;;;;;;4383480;32;20235;-68
2022/02/09 16:50:14;;;;;;;18.03;11.03;;;7.30;99.90;;;;;;4393461;32;20176;-68
2022/02/09 16:52:47;;;;;;;17.87;10.97;;;7.30;99.90;;;;;;4395623;32;20542;-68
2022/02/09 16:55:50;;;;;;;19.13;11.17;;;7.40;99.90;;;;;;4393784;32;20213;-68
2022/02/09 17:19:59;;;;;;;20.50;12.83;;;7.30;99.90;;;;;;4453252;32;20188;-70
2022/02/09 17:22:26;;;;;;;21.60;12.73;;;7.30;99.90;;;;;;4438474;32;20202;-69
2022/02/09 17:24:52;;;;;;;19.73;11.97;;;7.30;99.90;;;;;;4454511;32;20178;-70
2022/02/09 17:27:20;;;;;;;20.77;12.17;;;7.30;99.90;;;;;;4455554;32;20148;-69
2022/02/09 17:35:37;;;;;;;18.87;12.03;;;7.40;99.90;;;;;;4408749;32;20197;-69
2022/02/09 17:57:35;;;;;;;18.57;10.73;;;7.50;99.90;;;;;;4422410;32;20192;-70
2022/02/09 18:00:26;;;;;;;19.40;11.30;;;7.40;99.90;;;;;;4411139;32;20239;-70
2022/02/09 18:02:54;;;;;;;18.13;10.80;;;7.50;99.90;;;;;;4410767;32;20183;-71
2022/02/09 18:05:35;;;;;;;18.20;10.67;;;7.50;99.90;;;;;;4411620;32;20179;-71
2022/02/09 18:08:07;;;;;;;18.67;10.73;;;7.50;99.90;;;;;;4439154;32;20227;-72
2022/02/09 18:34:46;;;;;;;15.77;10.13;;;7.60;99.90;;;;;;4440680;32;20228;-69
2022/02/09 19:04:10;;;;;;;13.77;8.53;;;7.50;99.90;;;;;;4440955;32;20246;-71
2022/02/09 19:17:25;;;;;;;14.70;8.60;;;7.50;99.90;;;;;;4438980;32;20194;-71
2022/02/09 19:20:08;;;;;;;14.37;8.67;;;7.50;99.90;;;;;;4439624;32;20191;-71
2022/02/09 19:30:57;;;;;;;13.77;8.23;;;7.50;99.90;;;;;;4439145;32;20198;-71
2022/02/09 19:40:31;;;;;;;13.07;8.13;;;7.50;99.90;;;;;;4440642;32;20178;-71
2022/02/09 19:45:00;;;;;;;11.37;7.20;;;7.60;99.90;;;;;;4333441;33;20171;-69
2022/02/09 19:47:45;;;;;;;11.57;6.90;;;7.60;99.90;;;;;;4320481;33;20185;-69
2022/02/09 19:55:37;;;;;;;11.87;6.77;;;7.60;99.90;;;;;;4262766;33;20179;-69
2022/02/09 19:58:06;;;;;;;10.53;6.43;;;7.70;99.90;;;;;;4275120;33;20169;-69
2022/02/09 20:00:36;;;;;;;8.83;6.03;;;7.60;99.90;;;;;;4276349;33;20256;-69
2022/02/09 20:03:06;;;;;;;10.70;5.80;;;7.70;99.90;;;;;;4264300;33;20205;-69
2022/02/09 20:05:34;;;;;;;11.50;5.97;;;7.70;99.90;;;;;;4264448;33;20181;-69
2022/02/09 20:08:03;;;;;;;9.77;5.70;;;7.70;99.90;;;;;;4263042;33;20181;-70
2022/02/09 20:10:31;;;;;;;9.00;5.70;;;7.70;99.90;;;;;;4275476;33;20174;-69
2022/02/09 20:12:58;;;;;;;11.03;5.57;;;7.70;99.90;;;;;;4275788;33;20192;-69
2022/02/09 20:15:25;;;;;;;10.20;5.60;;;7.70;99.90;;;;;;4268250;33;20193;-68
2022/02/09 20:17:53;;;;;;;10.60;5.07;;;7.70;99.90;;;;;;4292096;33;20469;-69
2022/02/09 20:20:26;;;;;;;9.30;5.40;;;7.70;99.90;;;;;;4350555;32;20581;-69
2022/02/09 20:22:55;;;;;;;8.77;5.30;;;7.70;99.90;;;;;;4348680;33;20180;-69
2022/02/09 20:25:23;;;;;;;8.07;5.10;;;7.80;99.90;;;;;;4350104;33;20182;-69
2022/02/09 20:27:53;;;;;;;13.40;6.57;;;7.80;99.90;;;;;;4361443;32;20197;-69
2022/02/09 20:30:24;;;;;;;8.63;5.80;;;7.80;99.90;;;;;;4349947;33;20261;-68
2022/02/09 20:32:57;;;;;;;9.07;5.50;;;7.80;99.90;;;;;;4424004;32;20191;-70
2022/02/09 20:35:25;;;;;;;8.77;5.40;;;7.70;99.90;;;;;;4438306;32;20395;-68
2022/02/09 20:37:54;;;;;;;11.17;5.43;;;7.70;99.90;;;;;;4439502;32;20181;-68
2022/02/09 20:40:25;;;;;;;9.77;5.67;;;7.70;99.90;;;;;;4438100;32;20208;-68
2022/02/09 20:42:58;;;;;;;10.43;6.10;;;7.70;99.90;;;;;;4438200;32;20542;-68
2022/02/09 20:45:43;;;;;;;8.63;5.43;;;7.70;99.90;;;;;;4440720;32;20175;-68
2022/02/09 20:48:14;;;;;;;7.97;4.97;;;7.70;99.90;;;;;;4437953;32;20505;-68
2022/02/09 20:50:43;;;;;;;8.87;5.53;;;7.70;99.90;;;;;;4439549;32;20208;-68
2022/02/09 20:53:10;;;;;;;12.97;6.13;;;7.70;99.90;;;;;;4438137;32;20239;-69
2022/02/09 20:55:37;;;;;;;8.30;5.20;;;7.70;99.90;;;;;;4438893;32;20174;-69
2022/02/09 20:58:04;;;;;;;8.50;5.43;;;7.70;99.90;;;;;;4438963;32;20174;-69
2022/02/09 21:01:21;;;;;;;10.87;5.93;;;7.70;99.90;;;;;;4438364;32;20229;-69
2022/02/09 21:03:47;;;;;;;8.87;5.90;;;7.70;99.90;;;;;;4428508;32;20197;-69
2022/02/09 21:06:34;;;;;;;10.53;6.10;;;7.70;99.90;;;;;;4438451;32;20246;-68
2022/02/09 21:09:19;;;;;;;11.50;6.53;;;7.70;99.90;;;;;;4439546;32;20180;-69
2022/02/09 21:14:53;;;;;;;10.60;5.87;;;7.70;99.90;;;;;;4438225;32;20518;-69
2022/02/09 21:28:52;;;;;;;9.90;6.30;;;7.60;99.90;;;;;;4439832;32;20179;-68
2022/02/09 21:44:36;;;;;;;11.23;6.50;;;7.60;99.90;;;;;;4439263;32;20197;-68
2022/02/09 22:16:52;;;;;;;10.60;6.87;;;7.60;99.90;;;;;;4391181;32;20476;-70
2022/02/09 22:19:33;;;;;;;10.80;6.93;;;7.60;99.90;;;;;;4390922;32;20553;-70
2022/02/09 22:27:22;;;;;;;10.63;6.87;;;7.60;99.90;;;;;;4437401;32;20185;-70
2022/02/09 22:47:05;;;;;;;11.30;7.43;;;7.50;99.90;;;;;;4440715;32;20236;-69
2022/02/09 22:54:31;;;;;;;11.87;7.20;;;7.50;99.90;;;;;;4439688;32;20182;-70
2022/02/09 22:56:58;;;;;;;12.60;7.30;;;7.50;99.90;;;;;;4440154;32;20544;-70
2022/02/09 22:59:39;;;;;;;13.23;7.67;;;7.50;99.90;;;;;;4441424;32;20544;-69
2022/02/09 23:02:14;;;;;;;13.13;7.50;;;7.50;99.90;;;;;;4440132;32;20545;-69
2022/02/09 23:07:22;;;;;;;12.37;7.33;;;7.50;99.90;;;;;;4439778;32;20192;-69
2022/02/09 23:10:03;;;;;;;11.83;7.03;;;7.50;99.90;;;;;;4440893;32;20458;-69
2022/02/09 23:12:38;;;;;;;11.10;7.43;;;7.50;99.90;;;;;;4440048;32;20567;-69
2022/02/09 23:15:23;;;;;;;11.83;7.73;;;7.50;99.90;;;;;;4441180;32;20153;-69
2022/02/09 23:21:14;;;;;;;12.43;7.20;;;7.50;99.90;;;;;;4439110;32;20521;-69
